Terminal Aerodrome Forecast
Issued by NWS

Home | Current Version | Previous Version | Text Only | Print | Product List | Glossary On
Versions: 1 2 3 4 5 6 7 8 9 10 11 12 13 14
000
FTUS46 KMTR 220533
TAFSTS
TAF
KSTS 220533Z 2206/2306 15004KT P6SM SKC
      TEMPO 2206/2210 1SM BR VV001
     FM221000 VRB03KT 1/4SM FG VV001
     FM221630 32003KT P6SM SKC
     FM221800 32007KT P6SM SKC
     FM230300 02005KT P6SM SKC=

USA.gov is the U.S. government's official web portal to all federal, state and local government web resources and services.